createdAt,value
2016-08-21T00:00:12.022Z,72.85
2016-08-21T00:05:09.682Z,72.18
2016-08-21T00:10:07.465Z,72.56
2016-08-21T00:15:05.164Z,73.14
2016-08-21T00:20:02.853Z,73.33
2016-08-21T00:25:01.473Z,73.14
2016-08-21T00:29:59.336Z,73.43
2016-08-21T00:34:57.016Z,74.01
2016-08-21T00:39:54.811Z,74.49
2016-08-21T00:44:52.525Z,74.49
2016-08-21T00:49:50.252Z,74.30
2016-08-21T00:54:47.917Z,75.26
2016-08-21T00:59:46.461Z,75.36
2016-08-21T01:04:43.895Z,75.55
2016-08-21T01:09:43.616Z,75.16
2016-08-21T01:14:40.918Z,75.65
2016-08-21T01:19:38.755Z,75.74
2016-08-21T01:24:36.440Z,75.99
2016-08-21T01:29:34.172Z,76.09
2016-08-21T01:34:31.986Z,76.38
2016-08-21T01:39:29.581Z,75.90
2016-08-21T01:44:27.308Z,76.57
2016-08-21T01:49:25.196Z,76.57
2016-08-21T01:54:22.901Z,76.86
2016-08-21T01:59:20.584Z,76.76
2016-08-21T02:04:18.338Z,76.86
2016-08-21T02:09:16.110Z,76.57
2016-08-21T02:14:13.533Z,77.15
2016-08-21T02:19:11.163Z,77.31
2016-08-21T02:24:08.874Z,77.40
2016-08-21T02:29:06.495Z,76.92
2016-08-21T02:34:04.253Z,77.40
2016-08-21T02:39:02.008Z,77.50
2016-08-21T02:43:59.530Z,76.53
2016-08-21T02:48:57.312Z,76.53
2016-08-21T02:53:55.106Z,77.31
2016-08-21T02:58:52.887Z,76.73
2016-08-21T03:03:50.615Z,77.40
2016-08-21T03:08:48.382Z,76.92
2016-08-21T03:13:46.052Z,76.63
2016-08-21T03:18:43.901Z,76.73
2016-08-21T03:23:41.585Z,76.92
2016-08-21T03:28:39.481Z,76.44
2016-08-21T03:33:37.104Z,76.73
2016-08-21T03:38:34.705Z,76.82
2016-08-21T03:43:32.303Z,76.34
2016-08-21T03:48:30.067Z,76.82
2016-08-21T03:53:27.780Z,76.82
2016-08-21T03:58:25.535Z,76.92
2016-08-21T04:03:23.312Z,76.73
2016-08-21T04:08:20.981Z,75.96
2016-08-21T04:13:18.610Z,76.73
2016-08-21T04:18:16.345Z,76.15
2016-08-21T04:23:14.059Z,76.73
2016-08-21T04:28:11.566Z,76.73
2016-08-21T04:33:09.236Z,76.15
2016-08-21T04:38:07.071Z,75.86
2016-08-21T04:43:04.885Z,76.53
2016-08-21T04:48:02.709Z,75.86
2016-08-21T04:53:00.683Z,75.57
2016-08-21T04:57:58.320Z,76.15
2016-08-21T05:02:56.031Z,75.67
2016-08-21T05:07:53.703Z,75.57
2016-08-21T05:12:51.817Z,75.76
2016-08-21T05:17:49.401Z,75.09
2016-08-21T05:22:47.205Z,74.93
2016-08-21T05:27:44.911Z,74.26
2016-08-21T05:32:42.707Z,73.97
2016-08-21T05:37:40.497Z,73.62
2016-08-21T05:42:38.302Z,72.47
2016-08-21T05:47:36.067Z,72.66
2016-08-21T05:52:34.164Z,72.66
2016-08-21T05:57:31.972Z,72.27
2016-08-21T06:02:29.725Z,71.98
2016-08-21T06:07:27.649Z,71.25
2016-08-21T06:12:25.426Z,70.48
2016-08-21T06:17:23.027Z,70.22
2016-08-21T06:22:20.942Z,68.07
2016-08-21T06:27:18.764Z,68.62
2016-08-21T06:32:16.536Z,68.91
2016-08-21T06:37:14.302Z,69.93
2016-08-21T06:42:12.030Z,69.93
2016-08-21T06:47:09.739Z,69.26
2016-08-21T06:52:07.376Z,69.64
2016-08-21T06:57:05.019Z,69.74
2016-08-21T07:02:02.718Z,69.64
2016-08-21T07:07:00.387Z,69.26
2016-08-21T07:11:58.141Z,69.00
2016-08-21T07:16:55.859Z,69.93
2016-08-21T07:21:53.733Z,69.16
2016-08-21T07:26:51.506Z,69.58
2016-08-21T07:31:49.265Z,69.10
2016-08-21T07:36:47.110Z,68.71
2016-08-21T07:41:44.713Z,68.59
2016-08-21T07:46:42.302Z,69.16
2016-08-21T07:51:39.909Z,69.16
2016-08-21T07:56:37.787Z,69.51
2016-08-21T08:01:35.302Z,70.38
2016-08-21T08:06:32.939Z,69.71
2016-08-21T08:11:30.843Z,69.26
2016-08-21T08:16:28.794Z,69.71
2016-08-21T08:21:26.517Z,70.00
2016-08-21T08:26:24.308Z,70.48
2016-08-21T08:31:22.031Z,71.06
2016-08-21T08:36:19.752Z,70.57
2016-08-21T08:41:17.415Z,71.06
2016-08-21T08:46:15.157Z,70.80
2016-08-21T08:51:12.847Z,69.64
2016-08-21T08:56:10.831Z,68.77
2016-08-21T09:01:08.595Z,69.55
2016-08-21T09:06:06.132Z,70.13
2016-08-21T09:11:03.739Z,71.15
2016-08-21T09:16:01.413Z,71.15
2016-08-21T09:20:59.172Z,71.83
2016-08-21T09:25:56.683Z,71.34
2016-08-21T09:30:54.410Z,70.67
2016-08-21T09:35:52.108Z,72.69
2016-08-21T09:40:49.761Z,74.33
2016-08-21T09:45:47.293Z,75.59
2016-08-21T09:50:45.009Z,76.45
2016-08-21T09:55:42.600Z,76.71
2016-08-21T10:00:40.989Z,77.28
2016-08-21T10:05:38.492Z,76.71
2016-08-21T10:10:36.195Z,76.42
2016-08-21T10:15:33.861Z,76.84
2016-08-21T10:20:31.498Z,76.55
2016-08-21T10:25:29.227Z,76.84
2016-08-21T10:30:26.845Z,76.75
2016-08-21T10:35:24.639Z,76.26
2016-08-21T10:40:22.262Z,76.26
2016-08-21T10:45:19.836Z,76.84
2016-08-21T10:50:17.497Z,76.07
2016-08-21T10:55:15.206Z,75.05
2016-08-21T11:00:12.986Z,75.05
2016-08-21T11:05:10.811Z,75.78
2016-08-21T11:10:08.423Z,76.65
2016-08-21T11:15:06.124Z,76.65
2016-08-21T11:20:03.664Z,76.84
2016-08-21T11:25:01.461Z,76.84
2016-08-21T11:29:59.175Z,77.61
2016-08-21T11:34:56.687Z,78.06
2016-08-21T11:39:54.172Z,78.06
2016-08-21T11:44:51.922Z,78.25
2016-08-21T11:49:49.477Z,77.42
2016-08-21T11:54:47.279Z,77.33
2016-08-21T11:59:45.006Z,76.26
2016-08-21T12:04:42.864Z,77.13
2016-08-21T12:09:40.564Z,76.84
2016-08-21T12:14:38.263Z,76.55
2016-08-21T12:19:36.041Z,76.10
2016-08-21T12:24:33.862Z,76.05
2016-08-21T12:29:31.397Z,75.18
2016-08-21T12:34:28.964Z,75.27
2016-08-21T12:39:26.639Z,75.18
2016-08-21T12:44:24.408Z,74.79
2016-08-21T12:49:21.808Z,74.89
2016-08-21T12:54:19.450Z,74.79
2016-08-21T12:59:17.297Z,74.41
2016-08-21T13:04:14.711Z,74.02
2016-08-21T13:09:12.327Z,74.21
2016-08-21T13:14:09.974Z,74.41
2016-08-21T13:19:07.739Z,74.60
2016-08-21T13:24:05.415Z,75.82
2016-08-21T13:29:02.884Z,76.98
2016-08-21T13:34:00.718Z,77.65
2016-08-21T13:38:58.482Z,79.25
2016-08-21T13:43:56.022Z,78.33
2016-08-21T13:48:53.672Z,78.23
2016-08-21T13:53:51.173Z,78.13
2016-08-21T13:58:48.815Z,79.39
2016-08-21T14:03:46.421Z,79.68
2016-08-21T14:08:44.025Z,80.06
2016-08-21T14:13:41.698Z,81.99
2016-08-21T14:18:39.348Z,81.12
2016-08-21T14:23:37.042Z,81.70
2016-08-21T14:28:34.776Z,82.38
2016-08-21T14:33:32.427Z,82.96
2016-08-21T14:38:29.976Z,83.92
2016-08-21T14:43:27.466Z,83.05
2016-08-21T14:48:25.315Z,83.53
2016-08-21T14:53:22.925Z,84.41
2016-08-21T14:58:20.478Z,84.69
2016-08-21T15:03:18.229Z,85.31
2016-08-21T15:08:15.725Z,83.42
2016-08-21T15:13:13.225Z,82.17
2016-08-21T15:18:10.968Z,82.26
2016-08-21T15:23:08.703Z,80.53
2016-08-21T15:28:06.389Z,80.38
2016-08-21T15:33:05.023Z,80.14
2016-08-21T15:38:02.690Z,80.62
2016-08-21T15:43:00.188Z,80.68
2016-08-21T15:47:57.844Z,80.97
2016-08-21T15:52:55.458Z,81.16
2016-08-21T15:57:52.955Z,81.16
2016-08-21T16:02:50.753Z,81.22
2016-08-21T16:07:48.175Z,81.70
2016-08-21T16:12:45.842Z,82.57
2016-08-21T16:17:43.346Z,82.76
2016-08-21T16:22:40.980Z,82.86
2016-08-21T16:27:38.740Z,82.32
2016-08-21T16:32:36.358Z,83.05
2016-08-21T16:37:34.001Z,82.57
2016-08-21T16:42:31.549Z,83.25
2016-08-21T16:47:29.134Z,84.21
2016-08-21T16:52:26.784Z,84.01
2016-08-21T16:57:24.404Z,84.46
2016-08-21T17:02:22.005Z,84.46
2016-08-21T17:07:19.616Z,84.41
2016-08-21T17:12:17.350Z,83.98
2016-08-21T17:17:14.807Z,83.88
2016-08-21T17:22:12.403Z,84.11
2016-08-21T17:27:10.131Z,84.21
2016-08-21T17:32:09.246Z,83.59
2016-08-21T17:37:06.464Z,83.78
2016-08-21T17:42:04.310Z,84.46
2016-08-21T17:47:01.893Z,84.84
2016-08-21T17:51:59.566Z,85.71
2016-08-21T17:56:57.316Z,85.81
2016-08-21T18:01:54.888Z,86.35
2016-08-21T18:06:52.629Z,87.79
2016-08-21T18:11:50.122Z,87.50
2016-08-21T18:16:48.597Z,87.79
2016-08-21T18:21:46.027Z,87.88
2016-08-21T18:26:43.985Z,87.50
2016-08-21T18:31:41.785Z,87.79
2016-08-21T18:36:39.375Z,88.17
2016-08-21T18:41:37.048Z,87.88
2016-08-21T18:46:34.804Z,87.88
2016-08-21T18:51:32.458Z,88.08
2016-08-21T18:56:30.019Z,88.17
2016-08-21T19:01:27.646Z,88.65
2016-08-21T19:06:25.222Z,89.04
2016-08-21T19:11:23.352Z,88.65
2016-08-21T19:16:20.747Z,88.46
2016-08-21T19:21:18.399Z,89.43
2016-08-21T19:26:16.526Z,88.65
2016-08-21T19:31:13.863Z,90.16
2016-08-21T19:36:11.501Z,89.58
2016-08-21T19:41:09.377Z,90.34
2016-08-21T19:46:07.114Z,90.64
2016-08-21T19:51:04.855Z,90.16
2016-08-21T19:56:02.460Z,90.92
2016-08-21T20:01:00.089Z,89.62
2016-08-21T20:05:57.843Z,90.20
2016-08-21T20:10:55.535Z,89.62
2016-08-21T20:15:53.123Z,91.12
2016-08-21T20:20:50.720Z,90.34
2016-08-21T20:25:48.304Z,91.02
2016-08-21T20:30:45.995Z,90.34
2016-08-21T20:35:43.768Z,90.88
2016-08-21T20:40:41.352Z,90.54
2016-08-21T20:45:39.294Z,90.25
2016-08-21T20:50:36.841Z,89.72
2016-08-21T20:55:34.510Z,90.25
2016-08-21T21:00:32.303Z,91.02
2016-08-21T21:05:30.574Z,89.58
2016-08-21T21:10:27.993Z,89.62
2016-08-21T21:15:25.747Z,90.16
2016-08-21T21:20:23.364Z,90.25
2016-08-21T21:25:21.084Z,90.34
2016-08-21T21:30:18.766Z,89.96
2016-08-21T21:35:16.440Z,89.77
2016-08-21T21:40:14.192Z,89.39
2016-08-21T21:45:11.859Z,89.58
2016-08-21T21:50:09.743Z,89.86
2016-08-21T21:55:07.381Z,89.39
2016-08-21T22:00:05.181Z,89.09
2016-08-21T22:05:02.819Z,89.77
2016-08-21T22:10:00.394Z,90.16
2016-08-21T22:14:57.986Z,89.86
2016-08-21T22:19:55.665Z,90.06
2016-08-21T22:24:53.343Z,90.83
2016-08-21T22:29:51.036Z,90.73
2016-08-21T22:34:48.665Z,91.12
2016-08-21T22:39:46.214Z,91.41
2016-08-21T22:44:43.905Z,91.12
2016-08-21T22:49:41.514Z,91.17
2016-08-21T22:54:39.133Z,91.17
2016-08-21T22:59:36.844Z,91.41
2016-08-21T23:04:34.421Z,91.27
2016-08-21T23:09:32.204Z,91.36
2016-08-21T23:14:29.908Z,91.17
2016-08-21T23:19:27.560Z,91.27
2016-08-21T23:24:25.326Z,91.69
2016-08-21T23:29:22.880Z,91.17
2016-08-21T23:34:20.520Z,91.27
2016-08-21T23:39:18.177Z,91.46
2016-08-21T23:44:15.922Z,91.75
2016-08-21T23:49:13.504Z,90.97
2016-08-21T23:54:11.218Z,91.36
2016-08-21T23:59:09.035Z,91.46
